sensor_id;sensor_type;location;lat;lon;timestamp;pressure;altitude;pressure_sealevel;temperature;humidity
20930;BME280;21895;47.072;15.132;2023-06-26T00:01:02;96888.00;;;17.96;75.47
20930;BME280;21895;47.072;15.132;2023-06-26T00:03:29;96895.00;;;18.06;74.80
20930;BME280;21895;47.072;15.132;2023-06-26T00:05:55;96886.00;;;17.83;75.82
20930;BME280;21895;47.072;15.132;2023-06-26T00:08:28;96894.00;;;17.73;76.67
20930;BME280;21895;47.072;15.132;2023-06-26T00:10:54;96872.00;;;17.61;77.10
20930;BME280;21895;47.072;15.132;2023-06-26T00:13:23;96879.00;;;17.43;76.88
20930;BME280;21895;47.072;15.132;2023-06-26T00:15:50;96886.00;;;17.25;77.12
20930;BME280;21895;47.072;15.132;2023-06-26T00:18:17;96884.00;;;17.07;78.04
20930;BME280;21895;47.072;15.132;2023-06-26T00:20:44;96885.00;;;16.99;78.61
20930;BME280;21895;47.072;15.132;2023-06-26T00:23:16;96891.00;;;16.95;78.90
20930;BME280;21895;47.072;15.132;2023-06-26T00:25:43;96886.00;;;16.86;79.31
20930;BME280;21895;47.072;15.132;2023-06-26T00:28:10;96881.00;;;16.97;79.42
20930;BME280;21895;47.072;15.132;2023-06-26T00:30:36;96876.00;;;16.82;80.19
20930;BME280;21895;47.072;15.132;2023-06-26T00:33:03;96876.00;;;16.80;80.78
20930;BME280;21895;47.072;15.132;2023-06-26T00:35:30;96870.00;;;16.80;81.12
20930;BME280;21895;47.072;15.132;2023-06-26T00:37:57;96873.00;;;16.83;80.39
20930;BME280;21895;47.072;15.132;2023-06-26T00:40:23;96870.00;;;16.79;80.00
20930;BME280;21895;47.072;15.132;2023-06-26T00:42:50;96868.00;;;16.73;79.50
20930;BME280;21895;47.072;15.132;2023-06-26T00:45:17;96861.00;;;16.69;79.55
20930;BME280;21895;47.072;15.132;2023-06-26T00:47:56;96874.00;;;16.57;79.72
20930;BME280;21895;47.072;15.132;2023-06-26T00:50:22;96874.00;;;16.53;80.39
20930;BME280;21895;47.072;15.132;2023-06-26T00:52:50;96872.00;;;16.47;80.45
20930;BME280;21895;47.072;15.132;2023-06-26T00:55:17;96873.00;;;16.44;80.34
20930;BME280;21895;47.072;15.132;2023-06-26T00:57:44;96872.00;;;16.38;79.99
20930;BME280;21895;47.072;15.132;2023-06-26T01:00:13;96867.00;;;16.32;79.87
20930;BME280;21895;47.072;15.132;2023-06-26T01:02:40;96865.00;;;16.31;79.98
20930;BME280;21895;47.072;15.132;2023-06-26T01:05:07;96874.00;;;16.21;80.27
20930;BME280;21895;47.072;15.132;2023-06-26T01:07:35;96869.00;;;16.26;80.36
20930;BME280;21895;47.072;15.132;2023-06-26T01:10:07;96874.00;;;16.24;80.60
20930;BME280;21895;47.072;15.132;2023-06-26T01:12:34;96865.00;;;16.26;80.62
20930;BME280;21895;47.072;15.132;2023-06-26T01:15:02;96861.00;;;16.32;80.23
20930;BME280;21895;47.072;15.132;2023-06-26T01:17:29;96859.00;;;16.23;79.77
20930;BME280;21895;47.072;15.132;2023-06-26T01:20:00;96861.00;;;16.18;80.43
20930;BME280;21895;47.072;15.132;2023-06-26T01:25:15;96858.00;;;16.11;80.90
20930;BME280;21895;47.072;15.132;2023-06-26T01:27:48;96850.00;;;16.15;81.74
20930;BME280;21895;47.072;15.132;2023-06-26T01:30:16;96854.00;;;16.20;81.24
20930;BME280;21895;47.072;15.132;2023-06-26T01:32:45;96845.00;;;16.15;81.25
20930;BME280;21895;47.072;15.132;2023-06-26T01:35:13;96849.00;;;16.17;81.13
20930;BME280;21895;47.072;15.132;2023-06-26T01:37:40;96839.00;;;16.08;80.98
20930;BME280;21895;47.072;15.132;2023-06-26T01:40:08;96836.00;;;16.09;81.13
20930;BME280;21895;47.072;15.132;2023-06-26T01:42:36;96834.00;;;16.11;81.02
20930;BME280;21895;47.072;15.132;2023-06-26T01:45:23;96829.00;;;16.08;81.08
20930;BME280;21895;47.072;15.132;2023-06-26T01:47:52;96825.00;;;16.06;80.63
20930;BME280;21895;47.072;15.132;2023-06-26T01:50:24;96822.00;;;15.98;80.16
20930;BME280;21895;47.072;15.132;2023-06-26T01:53:41;96831.00;;;15.92;80.16
20930;BME280;21895;47.072;15.132;2023-06-26T01:56:17;96817.00;;;15.90;80.14
20930;BME280;21895;47.072;15.132;2023-06-26T01:58:47;96824.00;;;15.98;81.25
20930;BME280;21895;47.072;15.132;2023-06-26T02:01:14;96822.00;;;16.19;81.91
20930;BME280;21895;47.072;15.132;2023-06-26T02:03:41;96809.00;;;16.26;81.56
20930;BME280;21895;47.072;15.132;2023-06-26T02:06:08;96816.00;;;16.46;80.56
20930;BME280;21895;47.072;15.132;2023-06-26T02:08:34;96819.00;;;16.44;80.38
20930;BME280;21895;47.072;15.132;2023-06-26T02:11:01;96823.00;;;16.69;79.07
20930;BME280;21895;47.072;15.132;2023-06-26T02:13:27;96823.00;;;16.57;79.42
20930;BME280;21895;47.072;15.132;2023-06-26T02:15:54;96812.00;;;16.65;78.88
20930;BME280;21895;47.072;15.132;2023-06-26T02:18:20;96818.00;;;16.64;78.84
20930;BME280;21895;47.072;15.132;2023-06-26T02:20:50;96821.00;;;16.64;78.84
20930;BME280;21895;47.072;15.132;2023-06-26T02:23:17;96821.00;;;16.64;78.98
20930;BME280;21895;47.072;15.132;2023-06-26T02:25:43;96821.00;;;16.56;79.30
20930;BME280;21895;47.072;15.132;2023-06-26T02:28:10;96824.00;;;16.54;79.21
20930;BME280;21895;47.072;15.132;2023-06-26T02:30:36;96826.00;;;16.64;78.48
20930;BME280;21895;47.072;15.132;2023-06-26T02:33:04;96818.00;;;16.49;78.40
20930;BME280;21895;47.072;15.132;2023-06-26T02:35:30;96831.00;;;16.30;78.13
20930;BME280;21895;47.072;15.132;2023-06-26T02:37:59;96826.00;;;16.30;78.87
20930;BME280;21895;47.072;15.132;2023-06-26T02:40:25;96829.00;;;16.25;79.38
20930;BME280;21895;47.072;15.132;2023-06-26T02:42:52;96819.00;;;16.31;78.06
20930;BME280;21895;47.072;15.132;2023-06-26T02:45:18;96825.00;;;16.06;77.04
20930;BME280;21895;47.072;15.132;2023-06-26T02:47:45;96824.00;;;15.95;77.04
20930;BME280;21895;47.072;15.132;2023-06-26T02:50:11;96822.00;;;15.87;77.30
20930;BME280;21895;47.072;15.132;2023-06-26T02:52:38;96829.00;;;15.71;78.21
20930;BME280;21895;47.072;15.132;2023-06-26T02:55:05;96822.00;;;15.58;79.03
20930;BME280;21895;47.072;15.132;2023-06-26T02:57:32;96822.00;;;15.50;79.70
20930;BME280;21895;47.072;15.132;2023-06-26T02:59:58;96823.00;;;15.40;80.66
20930;BME280;21895;47.072;15.132;2023-06-26T03:02:25;96822.00;;;15.39;80.98
20930;BME280;21895;47.072;15.132;2023-06-26T03:04:52;96825.00;;;15.52;81.68
20930;BME280;21895;47.072;15.132;2023-06-26T03:07:19;96821.00;;;15.66;82.85
20930;BME280;21895;47.072;15.132;2023-06-26T03:09:45;96824.00;;;15.86;82.28
20930;BME280;21895;47.072;15.132;2023-06-26T03:12:12;96816.00;;;16.02;81.96
20930;BME280;21895;47.072;15.132;2023-06-26T03:14:38;96823.00;;;16.18;80.55
20930;BME280;21895;47.072;15.132;2023-06-26T03:17:05;96817.00;;;16.21;80.75
20930;BME280;21895;47.072;15.132;2023-06-26T03:19:33;96819.00;;;16.52;78.92
20930;BME280;21895;47.072;15.132;2023-06-26T03:21:59;96822.00;;;16.48;78.75
20930;BME280;21895;47.072;15.132;2023-06-26T03:24:26;96815.00;;;16.37;77.76
20930;BME280;21895;47.072;15.132;2023-06-26T03:26:53;96822.00;;;16.19;76.51
20930;BME280;21895;47.072;15.132;2023-06-26T03:29:19;96820.00;;;16.03;76.31
20930;BME280;21895;47.072;15.132;2023-06-26T03:31:46;96814.00;;;15.85;77.50
20930;BME280;21895;47.072;15.132;2023-06-26T03:34:12;96816.00;;;15.78;78.37
20930;BME280;21895;47.072;15.132;2023-06-26T03:36:39;96813.00;;;15.68;78.88
20930;BME280;21895;47.072;15.132;2023-06-26T03:39:05;96824.00;;;15.78;79.41
20930;BME280;21895;47.072;15.132;2023-06-26T03:41:32;96822.00;;;15.92;80.27
20930;BME280;21895;47.072;15.132;2023-06-26T03:43:59;96817.00;;;16.16;79.83
20930;BME280;21895;47.072;15.132;2023-06-26T03:46:26;96811.00;;;16.29;79.65
20930;BME280;21895;47.072;15.132;2023-06-26T03:48:53;96814.00;;;16.48;78.82
20930;BME280;21895;47.072;15.132;2023-06-26T03:51:19;96810.00;;;16.54;78.18
20930;BME280;21895;47.072;15.132;2023-06-26T03:53:46;96816.00;;;16.71;77.68
20930;BME280;21895;47.072;15.132;2023-06-26T03:56:13;96812.00;;;16.75;76.94
20930;BME280;21895;47.072;15.132;2023-06-26T03:58:40;96815.00;;;16.86;76.79
20930;BME280;21895;47.072;15.132;2023-06-26T04:01:06;96817.00;;;16.94;76.20
20930;BME280;21895;47.072;15.132;2023-06-26T04:03:34;96814.00;;;16.93;75.98
20930;BME280;21895;47.072;15.132;2023-06-26T04:06:00;96811.00;;;16.95;76.10
20930;BME280;21895;47.072;15.132;2023-06-26T04:08:27;96818.00;;;16.93;76.12
20930;BME280;21895;47.072;15.132;2023-06-26T04:10:53;96814.00;;;16.99;75.75
20930;BME280;21895;47.072;15.132;2023-06-26T04:13:21;96821.00;;;16.88;76.22
20930;BME280;21895;47.072;15.132;2023-06-26T04:15:48;96820.00;;;16.84;75.96
20930;BME280;21895;47.072;15.132;2023-06-26T04:18:14;96817.00;;;16.72;76.68
20930;BME280;21895;47.072;15.132;2023-06-26T04:21:08;96818.00;;;16.65;77.80
20930;BME280;21895;47.072;15.132;2023-06-26T04:23:35;96815.00;;;16.65;78.05
20930;BME280;21895;47.072;15.132;2023-06-26T04:26:02;96818.00;;;16.69;78.27
20930;BME280;21895;47.072;15.132;2023-06-26T04:28:29;96819.00;;;16.76;78.31
20930;BME280;21895;47.072;15.132;2023-06-26T04:30:56;96821.00;;;16.86;78.62
20930;BME280;21895;47.072;15.132;2023-06-26T04:33:22;96815.00;;;17.04;77.28
20930;BME280;21895;47.072;15.132;2023-06-26T04:35:49;96814.00;;;16.93;78.12
20930;BME280;21895;47.072;15.132;2023-06-26T04:38:16;96810.00;;;17.04;78.07
20930;BME280;21895;47.072;15.132;2023-06-26T04:40:42;96815.00;;;17.13;78.21
20930;BME280;21895;47.072;15.132;2023-06-26T04:43:09;96813.00;;;17.25;77.03
20930;BME280;21895;47.072;15.132;2023-06-26T04:45:35;96808.00;;;17.30;77.91
20930;BME280;21895;47.072;15.132;2023-06-26T04:48:03;96810.00;;;17.42;77.32
20930;BME280;21895;47.072;15.132;2023-06-26T04:50:30;96813.00;;;17.73;75.01
20930;BME280;21895;47.072;15.132;2023-06-26T04:52:57;96815.00;;;17.95;73.86
20930;BME280;21895;47.072;15.132;2023-06-26T04:55:24;96816.00;;;18.53;72.71
20930;BME280;21895;47.072;15.132;2023-06-26T04:57:51;96811.00;;;20.34;65.59
20930;BME280;21895;47.072;15.132;2023-06-26T05:00:18;96808.00;;;22.82;57.67
20930;BME280;21895;47.072;15.132;2023-06-26T05:02:45;96807.00;;;24.82;51.07
20930;BME280;21895;47.072;15.132;2023-06-26T05:05:12;96807.00;;;25.62;48.30
20930;BME280;21895;47.072;15.132;2023-06-26T05:07:40;96801.00;;;25.73;47.52
20930;BME280;21895;47.072;15.132;2023-06-26T05:10:08;96807.00;;;25.32;48.19
20930;BME280;21895;47.072;15.132;2023-06-26T05:12:34;96798.00;;;24.85;49.66
20930;BME280;21895;47.072;15.132;2023-06-26T05:15:01;96797.00;;;24.39;51.13
20930;BME280;21895;47.072;15.132;2023-06-26T05:17:28;96796.00;;;23.88;53.08
20930;BME280;21895;47.072;15.132;2023-06-26T05:19:54;96789.00;;;23.69;54.65
20930;BME280;21895;47.072;15.132;2023-06-26T05:22:21;96789.00;;;23.51;54.92
20930;BME280;21895;47.072;15.132;2023-06-26T05:24:49;96786.00;;;23.44;56.59
20930;BME280;21895;47.072;15.132;2023-06-26T05:27:18;96791.00;;;23.64;55.51
20930;BME280;21895;47.072;15.132;2023-06-26T05:29:49;96791.00;;;23.51;56.29
20930;BME280;21895;47.072;15.132;2023-06-26T05:32:17;96786.00;;;23.41;56.77
20930;BME280;21895;47.072;15.132;2023-06-26T05:34:48;96789.00;;;23.53;55.34
20930;BME280;21895;47.072;15.132;2023-06-26T05:37:21;96787.00;;;23.71;54.57
20930;BME280;21895;47.072;15.132;2023-06-26T05:39:48;96788.00;;;24.18;53.07
20930;BME280;21895;47.072;15.132;2023-06-26T05:42:16;96793.00;;;24.14;54.14
20930;BME280;21895;47.072;15.132;2023-06-26T05:44:42;96799.00;;;24.53;52.91
20930;BME280;21895;47.072;15.132;2023-06-26T05:47:09;96795.00;;;24.79;51.01
20930;BME280;21895;47.072;15.132;2023-06-26T05:49:36;96795.00;;;24.67;50.61
20930;BME280;21895;47.072;15.132;2023-06-26T05:52:03;96789.00;;;24.76;53.26
20930;BME280;21895;47.072;15.132;2023-06-26T05:54:30;96791.00;;;24.72;51.85
20930;BME280;21895;47.072;15.132;2023-06-26T05:56:58;96790.00;;;25.01;52.00
20930;BME280;21895;47.072;15.132;2023-06-26T05:59:27;96793.00;;;25.20;50.96
20930;BME280;21895;47.072;15.132;2023-06-26T06:01:53;96791.00;;;25.34;51.63
20930;BME280;21895;47.072;15.132;2023-06-26T06:04:20;96794.00;;;25.60;50.54
20930;BME280;21895;47.072;15.132;2023-06-26T06:06:47;96795.00;;;25.65;50.52
20930;BME280;21895;47.072;15.132;2023-06-26T06:09:13;96795.00;;;25.82;49.19
20930;BME280;21895;47.072;15.132;2023-06-26T06:11:41;96793.00;;;26.07;50.24
20930;BME280;21895;47.072;15.132;2023-06-26T06:14:08;96789.00;;;26.06;48.29
20930;BME280;21895;47.072;15.132;2023-06-26T06:16:34;96786.00;;;26.16;49.22
20930;BME280;21895;47.072;15.132;2023-06-26T06:19:01;96786.00;;;26.13;49.69
20930;BME280;21895;47.072;15.132;2023-06-26T06:21:29;96782.00;;;26.19;48.75
20930;BME280;21895;47.072;15.132;2023-06-26T06:23:56;96780.00;;;26.24;49.33
20930;BME280;21895;47.072;15.132;2023-06-26T06:26:22;96785.00;;;26.35;49.33
20930;BME280;21895;47.072;15.132;2023-06-26T06:28:49;96783.00;;;26.61;48.51
20930;BME280;21895;47.072;15.132;2023-06-26T06:31:15;96781.00;;;26.67;47.91
20930;BME280;21895;47.072;15.132;2023-06-26T06:33:42;96776.00;;;26.69;47.67
20930;BME280;21895;47.072;15.132;2023-06-26T06:36:09;96774.00;;;26.76;49.46
20930;BME280;21895;47.072;15.132;2023-06-26T06:38:35;96777.00;;;27.06;48.16
20930;BME280;21895;47.072;15.132;2023-06-26T06:41:02;96783.00;;;27.13;48.84
20930;BME280;21895;47.072;15.132;2023-06-26T06:43:28;96776.00;;;27.33;49.40
20930;BME280;21895;47.072;15.132;2023-06-26T06:45:55;96778.00;;;27.59;49.13
20930;BME280;21895;47.072;15.132;2023-06-26T06:48:22;96781.00;;;27.51;51.00
20930;BME280;21895;47.072;15.132;2023-06-26T06:50:48;96775.00;;;27.78;48.35
20930;BME280;21895;47.072;15.132;2023-06-26T06:53:15;96777.00;;;27.58;48.77
20930;BME280;21895;47.072;15.132;2023-06-26T06:55:41;96771.00;;;27.83;49.61
20930;BME280;21895;47.072;15.132;2023-06-26T06:58:08;96770.00;;;27.85;49.42
20930;BME280;21895;47.072;15.132;2023-06-26T07:00:34;96767.00;;;27.94;50.54
20930;BME280;21895;47.072;15.132;2023-06-26T07:03:01;96766.00;;;28.02;50.00
20930;BME280;21895;47.072;15.132;2023-06-26T07:05:28;96770.00;;;28.26;49.64
20930;BME280;21895;47.072;15.132;2023-06-26T07:07:54;96766.00;;;28.46;49.14
20930;BME280;21895;47.072;15.132;2023-06-26T07:10:21;96764.00;;;28.57;47.91
20930;BME280;21895;47.072;15.132;2023-06-26T07:12:47;96762.00;;;28.59;49.23
20930;BME280;21895;47.072;15.132;2023-06-26T07:15:14;96766.00;;;28.77;49.04
20930;BME280;21895;47.072;15.132;2023-06-26T07:17:40;96757.00;;;28.93;47.95
20930;BME280;21895;47.072;15.132;2023-06-26T07:20:08;96765.00;;;28.95;47.32
20930;BME280;21895;47.072;15.132;2023-06-26T07:22:36;96765.00;;;29.15;45.00
20930;BME280;21895;47.072;15.132;2023-06-26T07:25:03;96757.00;;;29.26;45.46
20930;BME280;21895;47.072;15.132;2023-06-26T07:27:30;96762.00;;;29.27;46.24
20930;BME280;21895;47.072;15.132;2023-06-26T07:29:57;96760.00;;;29.35;45.05
20930;BME280;21895;47.072;15.132;2023-06-26T07:32:24;96762.00;;;29.58;45.07
20930;BME280;21895;47.072;15.132;2023-06-26T07:34:50;96762.00;;;29.64;44.67
20930;BME280;21895;47.072;15.132;2023-06-26T07:37:18;96762.00;;;29.61;45.29
20930;BME280;21895;47.072;15.132;2023-06-26T07:39:45;96758.00;;;29.78;43.22
20930;BME280;21895;47.072;15.132;2023-06-26T07:42:11;96765.00;;;29.73;44.31
20930;BME280;21895;47.072;15.132;2023-06-26T07:44:38;96753.00;;;29.92;42.34
20930;BME280;21895;47.072;15.132;2023-06-26T07:47:04;96761.00;;;29.93;42.49
20930;BME280;21895;47.072;15.132;2023-06-26T07:49:31;96756.00;;;30.08;41.38
20930;BME280;21895;47.072;15.132;2023-06-26T07:51:58;96762.00;;;30.20;41.75
20930;BME280;21895;47.072;15.132;2023-06-26T07:54:24;96760.00;;;30.09;41.57
20930;BME280;21895;47.072;15.132;2023-06-26T07:57:03;96756.00;;;30.36;40.71
20930;BME280;21895;47.072;15.132;2023-06-26T07:59:30;96756.00;;;30.09;40.63
20930;BME280;21895;47.072;15.132;2023-06-26T08:01:58;96755.00;;;30.25;41.75
20930;BME280;21895;47.072;15.132;2023-06-26T08:04:27;96755.00;;;30.32;41.01
20930;BME280;21895;47.072;15.132;2023-06-26T08:06:57;96759.00;;;30.47;42.19
20930;BME280;21895;47.072;15.132;2023-06-26T08:09:27;96757.00;;;30.47;41.26
20930;BME280;21895;47.072;15.132;2023-06-26T08:11:55;96759.00;;;30.59;40.03
20930;BME280;21895;47.072;15.132;2023-06-26T08:14:23;96760.00;;;30.53;40.28
20930;BME280;21895;47.072;15.132;2023-06-26T08:16:50;96752.00;;;30.42;39.29
20930;BME280;21895;47.072;15.132;2023-06-26T08:19:17;96752.00;;;30.44;40.34
20930;BME280;21895;47.072;15.132;2023-06-26T08:21:45;96752.00;;;30.55;40.41
20930;BME280;21895;47.072;15.132;2023-06-26T08:24:12;96761.00;;;30.39;41.47
20930;BME280;21895;47.072;15.132;2023-06-26T08:26:39;96746.00;;;30.53;40.73
20930;BME280;21895;47.072;15.132;2023-06-26T08:29:06;96749.00;;;30.75;38.33
20930;BME280;21895;47.072;15.132;2023-06-26T08:31:40;96752.00;;;30.78;38.01
20930;BME280;21895;47.072;15.132;2023-06-26T08:34:07;96751.00;;;30.77;39.58
20930;BME280;21895;47.072;15.132;2023-06-26T08:36:34;96757.00;;;30.93;38.19
20930;BME280;21895;47.072;15.132;2023-06-26T08:39:01;96754.00;;;30.80;38.06
20930;BME280;21895;47.072;15.132;2023-06-26T08:41:29;96752.00;;;30.83;39.59
20930;BME280;21895;47.072;15.132;2023-06-26T08:43:55;96753.00;;;31.05;38.16
20930;BME280;21895;47.072;15.132;2023-06-26T08:46:22;96753.00;;;31.24;37.44
20930;BME280;21895;47.072;15.132;2023-06-26T08:48:56;96750.00;;;31.38;36.46
20930;BME280;21895;47.072;15.132;2023-06-26T08:51:25;96744.00;;;31.48;36.36
20930;BME280;21895;47.072;15.132;2023-06-26T08:54:02;96749.00;;;31.26;37.19
20930;BME280;21895;47.072;15.132;2023-06-26T08:56:38;96742.00;;;31.44;36.42
20930;BME280;21895;47.072;15.132;2023-06-26T08:59:07;96737.00;;;31.46;35.24
20930;BME280;21895;47.072;15.132;2023-06-26T09:01:37;96735.00;;;31.40;35.89
20930;BME280;21895;47.072;15.132;2023-06-26T09:04:05;96739.00;;;31.39;35.46
20930;BME280;21895;47.072;15.132;2023-06-26T09:06:32;96743.00;;;31.51;35.88
20930;BME280;21895;47.072;15.132;2023-06-26T09:08:59;96738.00;;;31.51;35.78
20930;BME280;21895;47.072;15.132;2023-06-26T09:11:26;96729.00;;;31.35;35.33
20930;BME280;21895;47.072;15.132;2023-06-26T09:13:52;96725.00;;;31.64;36.68
20930;BME280;21895;47.072;15.132;2023-06-26T09:16:25;96727.00;;;31.59;36.09
20930;BME280;21895;47.072;15.132;2023-06-26T09:18:53;96730.00;;;31.31;35.40
20930;BME280;21895;47.072;15.132;2023-06-26T09:21:21;96727.00;;;31.40;35.57
20930;BME280;21895;47.072;15.132;2023-06-26T09:23:50;96727.00;;;31.46;36.27
20930;BME280;21895;47.072;15.132;2023-06-26T09:26:16;96721.00;;;31.51;37.06
20930;BME280;21895;47.072;15.132;2023-06-26T09:28:43;96724.00;;;31.65;37.14
20930;BME280;21895;47.072;15.132;2023-06-26T09:31:10;96727.00;;;31.85;37.41
20930;BME280;21895;47.072;15.132;2023-06-26T09:33:38;96725.00;;;31.99;36.25
20930;BME280;21895;47.072;15.132;2023-06-26T09:36:18;96723.00;;;32.26;36.63
20930;BME280;21895;47.072;15.132;2023-06-26T09:38:45;96720.00;;;32.37;35.24
20930;BME280;21895;47.072;15.132;2023-06-26T09:41:11;96723.00;;;32.44;35.83
20930;BME280;21895;47.072;15.132;2023-06-26T09:43:51;96726.00;;;32.56;35.55
20930;BME280;21895;47.072;15.132;2023-06-26T09:46:28;96714.00;;;32.19;36.03
20930;BME280;21895;47.072;15.132;2023-06-26T09:49:06;96711.00;;;32.01;37.05
20930;BME280;21895;47.072;15.132;2023-06-26T09:51:38;96707.00;;;32.09;35.14
20930;BME280;21895;47.072;15.132;2023-06-26T09:54:06;96699.00;;;32.08;34.91
20930;BME280;21895;47.072;15.132;2023-06-26T09:56:33;96707.00;;;32.16;36.88
20930;BME280;21895;47.072;15.132;2023-06-26T09:59:03;96702.00;;;32.10;36.07
20930;BME280;21895;47.072;15.132;2023-06-26T10:01:32;96705.00;;;32.04;34.95
20930;BME280;21895;47.072;15.132;2023-06-26T10:03:59;96703.00;;;32.15;35.20
20930;BME280;21895;47.072;15.132;2023-06-26T10:06:36;96695.00;;;31.98;35.08
20930;BME280;21895;47.072;15.132;2023-06-26T10:09:05;96702.00;;;32.10;35.31
20930;BME280;21895;47.072;15.132;2023-06-26T10:13:16;96703.00;;;32.20;37.17
20930;BME280;21895;47.072;15.132;2023-06-26T10:15:46;96698.00;;;32.42;32.99
20930;BME280;21895;47.072;15.132;2023-06-26T10:18:17;96694.00;;;32.47;34.03
20930;BME280;21895;47.072;15.132;2023-06-26T10:20:48;96695.00;;;32.31;34.16
20930;BME280;21895;47.072;15.132;2023-06-26T10:23:20;96685.00;;;32.41;33.77
20930;BME280;21895;47.072;15.132;2023-06-26T10:25:52;96688.00;;;32.53;34.30
20930;BME280;21895;47.072;15.132;2023-06-26T10:28:21;96694.00;;;32.65;33.80
20930;BME280;21895;47.072;15.132;2023-06-26T10:30:51;96689.00;;;32.53;33.43
20930;BME280;21895;47.072;15.132;2023-06-26T10:33:20;96687.00;;;32.71;32.71
20930;BME280;21895;47.072;15.132;2023-06-26T10:35:46;96691.00;;;32.82;34.53
20930;BME280;21895;47.072;15.132;2023-06-26T10:38:13;96686.00;;;32.91;32.46
20930;BME280;21895;47.072;15.132;2023-06-26T10:40:48;96688.00;;;32.75;33.72
20930;BME280;21895;47.072;15.132;2023-06-26T10:43:18;96685.00;;;32.80;34.09
20930;BME280;21895;47.072;15.132;2023-06-26T10:45:49;96680.00;;;32.91;33.02
20930;BME280;21895;47.072;15.132;2023-06-26T10:48:21;96674.00;;;32.89;33.33
20930;BME280;21895;47.072;15.132;2023-06-26T10:50:49;96678.00;;;33.02;30.96
20930;BME280;21895;47.072;15.132;2023-06-26T10:53:23;96680.00;;;33.12;33.06
20930;BME280;21895;47.072;15.132;2023-06-26T10:56:05;96674.00;;;33.47;32.93
20930;BME280;21895;47.072;15.132;2023-06-26T10:58:41;96673.00;;;33.89;31.42
20930;BME280;21895;47.072;15.132;2023-06-26T11:01:17;96671.00;;;33.95;30.09
20930;BME280;21895;47.072;15.132;2023-06-26T11:04:17;96670.00;;;33.98;30.56
20930;BME280;21895;47.072;15.132;2023-06-26T11:06:46;96667.00;;;34.18;30.13
20930;BME280;21895;47.072;15.132;2023-06-26T11:09:23;96664.00;;;33.35;30.62
20930;BME280;21895;47.072;15.132;2023-06-26T11:11:57;96661.00;;;33.27;31.51
20930;BME280;21895;47.072;15.132;2023-06-26T11:14:26;96661.00;;;33.41;32.18
20930;BME280;21895;47.072;15.132;2023-06-26T11:16:56;96666.00;;;33.44;31.21
20930;BME280;21895;47.072;15.132;2023-06-26T11:19:26;96661.00;;;33.58;32.48
20930;BME280;21895;47.072;15.132;2023-06-26T11:22:02;96660.00;;;33.63;30.84
20930;BME280;21895;47.072;15.132;2023-06-26T11:24:30;96659.00;;;33.57;33.04
20930;BME280;21895;47.072;15.132;2023-06-26T11:27:01;96663.00;;;33.28;31.17
20930;BME280;21895;47.072;15.132;2023-06-26T11:29:29;96657.00;;;33.24;31.00
20930;BME280;21895;47.072;15.132;2023-06-26T11:32:01;96656.00;;;33.43;30.86
20930;BME280;21895;47.072;15.132;2023-06-26T11:34:32;96655.00;;;33.60;31.57
20930;BME280;21895;47.072;15.132;2023-06-26T11:36:59;96655.00;;;33.78;31.44
20930;BME280;21895;47.072;15.132;2023-06-26T11:39:27;96652.00;;;33.95;30.22
20930;BME280;21895;47.072;15.132;2023-06-26T11:41:54;96652.00;;;33.71;30.58
20930;BME280;21895;47.072;15.132;2023-06-26T11:44:21;96655.00;;;33.56;30.94
20930;BME280;21895;47.072;15.132;2023-06-26T11:46:52;96643.00;;;33.67;31.89
20930;BME280;21895;47.072;15.132;2023-06-26T11:49:22;96648.00;;;33.63;32.02
20930;BME280;21895;47.072;15.132;2023-06-26T11:51:49;96651.00;;;33.93;29.81
20930;BME280;21895;47.072;15.132;2023-06-26T11:54:23;96649.00;;;33.67;29.63
20930;BME280;21895;47.072;15.132;2023-06-26T11:56:59;96656.00;;;33.59;32.05
20930;BME280;21895;47.072;15.132;2023-06-26T12:00:12;96653.00;;;33.54;30.39
20930;BME280;21895;47.072;15.132;2023-06-26T12:02:38;96650.00;;;33.50;29.39
20930;BME280;21895;47.072;15.132;2023-06-26T12:05:07;96651.00;;;33.45;31.36
20930;BME280;21895;47.072;15.132;2023-06-26T12:07:34;96649.00;;;33.28;30.02
20930;BME280;21895;47.072;15.132;2023-06-26T12:10:04;96648.00;;;33.31;30.79
20930;BME280;21895;47.072;15.132;2023-06-26T12:12:33;96644.00;;;33.16;30.88
20930;BME280;21895;47.072;15.132;2023-06-26T12:15:00;96645.00;;;32.90;31.16
20930;BME280;21895;47.072;15.132;2023-06-26T12:17:27;96644.00;;;32.79;31.32
20930;BME280;21895;47.072;15.132;2023-06-26T12:19:53;96652.00;;;32.63;31.71
20930;BME280;21895;47.072;15.132;2023-06-26T12:22:20;96647.00;;;32.84;31.13
20930;BME280;21895;47.072;15.132;2023-06-26T12:24:48;96644.00;;;32.43;31.27
20930;BME280;21895;47.072;15.132;2023-06-26T12:27:17;96644.00;;;32.36;30.78
20930;BME280;21895;47.072;15.132;2023-06-26T12:30:04;96638.00;;;32.61;30.23
20930;BME280;21895;47.072;15.132;2023-06-26T12:32:32;96636.00;;;32.57;30.64
20930;BME280;21895;47.072;15.132;2023-06-26T12:34:58;96628.00;;;32.35;32.13
20930;BME280;21895;47.072;15.132;2023-06-26T12:37:25;96631.00;;;32.65;31.71
20930;BME280;21895;47.072;15.132;2023-06-26T12:39:57;96621.00;;;32.69;30.96
20930;BME280;21895;47.072;15.132;2023-06-26T12:42:26;96615.00;;;32.69;31.65
20930;BME280;21895;47.072;15.132;2023-06-26T12:44:54;96616.00;;;32.92;30.85
20930;BME280;21895;47.072;15.132;2023-06-26T12:47:29;96615.00;;;32.92;32.24
20930;BME280;21895;47.072;15.132;2023-06-26T12:49:57;96616.00;;;33.21;31.73
20930;BME280;21895;47.072;15.132;2023-06-26T12:52:24;96614.00;;;33.30;31.48
20930;BME280;21895;47.072;15.132;2023-06-26T12:54:55;96617.00;;;32.82;31.92
20930;BME280;21895;47.072;15.132;2023-06-26T12:57:22;96620.00;;;32.67;30.60
20930;BME280;21895;47.072;15.132;2023-06-26T12:59:49;96608.00;;;32.80;30.17
20930;BME280;21895;47.072;15.132;2023-06-26T13:02:16;96610.00;;;32.69;30.47